sensor_id;sensor_type;location;lat;lon;timestamp;P1;durP1;ratioP1;P2;durP2;ratioP2
78885;SDS011;68269;52.514;5.722;2023-05-10T00:02:23;12.32;;;4.07;;
78885;SDS011;68269;52.514;5.722;2023-05-10T00:04:52;10.75;;;3.63;;
78885;SDS011;68269;52.514;5.722;2023-05-10T00:07:21;11.77;;;3.67;;
78885;SDS011;68269;52.514;5.722;2023-05-10T00:09:51;10.43;;;3.65;;
78885;SDS011;68269;52.514;5.722;2023-05-10T00:12:20;10.40;;;3.65;;
78885;SDS011;68269;52.514;5.722;2023-05-10T00:14:49;10.07;;;3.60;;
78885;SDS011;68269;52.514;5.722;2023-05-10T00:17:18;12.25;;;4.30;;
78885;SDS011;68269;52.514;5.722;2023-05-10T00:19:50;11.50;;;3.78;;
78885;SDS011;68269;52.514;5.722;2023-05-10T00:22:20;11.27;;;4.10;;
78885;SDS011;68269;52.514;5.722;2023-05-10T00:24:49;12.93;;;4.35;;
78885;SDS011;68269;52.514;5.722;2023-05-10T00:27:18;11.02;;;4.20;;
78885;SDS011;68269;52.514;5.722;2023-05-10T00:29:47;12.80;;;4.15;;
78885;SDS011;68269;52.514;5.722;2023-05-10T00:32:17;12.05;;;4.05;;
78885;SDS011;68269;52.514;5.722;2023-05-10T00:34:46;13.05;;;4.45;;
78885;SDS011;68269;52.514;5.722;2023-05-10T00:37:18;11.32;;;4.00;;
78885;SDS011;68269;52.514;5.722;2023-05-10T00:42:17;12.00;;;4.43;;
78885;SDS011;68269;52.514;5.722;2023-05-10T00:44:47;13.05;;;3.70;;
78885;SDS011;68269;52.514;5.722;2023-05-10T00:47:16;11.82;;;4.03;;
78885;SDS011;68269;52.514;5.722;2023-05-10T00:49:45;12.30;;;4.72;;
78885;SDS011;68269;52.514;5.722;2023-05-10T00:52:17;11.20;;;4.07;;
78885;SDS011;68269;52.514;5.722;2023-05-10T00:54:49;14.05;;;4.25;;
78885;SDS011;68269;52.514;5.722;2023-05-10T00:57:20;13.13;;;4.22;;
78885;SDS011;68269;52.514;5.722;2023-05-10T00:59:50;12.55;;;4.38;;
78885;SDS011;68269;52.514;5.722;2023-05-10T01:02:20;11.00;;;4.32;;
78885;SDS011;68269;52.514;5.722;2023-05-10T01:04:49;12.20;;;4.72;;
78885;SDS011;68269;52.514;5.722;2023-05-10T01:07:21;13.15;;;4.35;;
78885;SDS011;68269;52.514;5.722;2023-05-10T01:09:51;12.60;;;4.40;;
78885;SDS011;68269;52.514;5.722;2023-05-10T01:12:20;12.88;;;4.22;;
78885;SDS011;68269;52.514;5.722;2023-05-10T01:14:49;12.43;;;4.70;;
78885;SDS011;68269;52.514;5.722;2023-05-10T01:17:19;12.65;;;4.68;;
78885;SDS011;68269;52.514;5.722;2023-05-10T01:19:49;12.90;;;4.72;;
78885;SDS011;68269;52.514;5.722;2023-05-10T01:22:30;15.27;;;4.22;;
78885;SDS011;68269;52.514;5.722;2023-05-10T01:25:29;12.80;;;4.47;;
78885;SDS011;68269;52.514;5.722;2023-05-10T01:28:15;13.85;;;4.50;;
78885;SDS011;68269;52.514;5.722;2023-05-10T01:34:02;14.07;;;4.80;;
78885;SDS011;68269;52.514;5.722;2023-05-10T01:36:40;13.57;;;4.78;;
78885;SDS011;68269;52.514;5.722;2023-05-10T01:39:14;12.95;;;4.75;;
78885;SDS011;68269;52.514;5.722;2023-05-10T01:41:48;12.75;;;4.25;;
78885;SDS011;68269;52.514;5.722;2023-05-10T01:44:24;15.15;;;5.40;;
78885;SDS011;68269;52.514;5.722;2023-05-10T01:47:00;13.40;;;5.10;;
78885;SDS011;68269;52.514;5.722;2023-05-10T01:49:36;13.82;;;4.47;;
78885;SDS011;68269;52.514;5.722;2023-05-10T01:52:10;13.75;;;4.38;;
78885;SDS011;68269;52.514;5.722;2023-05-10T01:57:15;14.52;;;4.90;;
78885;SDS011;68269;52.514;5.722;2023-05-10T01:59:46;13.20;;;4.32;;
78885;SDS011;68269;52.514;5.722;2023-05-10T02:02:20;17.38;;;4.80;;
78885;SDS011;68269;52.514;5.722;2023-05-10T02:04:53;14.73;;;4.82;;
78885;SDS011;68269;52.514;5.722;2023-05-10T02:07:23;13.30;;;4.43;;
78885;SDS011;68269;52.514;5.722;2023-05-10T02:09:53;13.30;;;4.68;;
78885;SDS011;68269;52.514;5.722;2023-05-10T02:12:24;12.80;;;4.95;;
78885;SDS011;68269;52.514;5.722;2023-05-10T02:14:55;16.25;;;5.88;;
78885;SDS011;68269;52.514;5.722;2023-05-10T02:17:25;15.68;;;5.35;;
78885;SDS011;68269;52.514;5.722;2023-05-10T02:19:59;18.88;;;5.60;;
78885;SDS011;68269;52.514;5.722;2023-05-10T02:22:31;17.95;;;6.15;;
78885;SDS011;68269;52.514;5.722;2023-05-10T02:25:04;15.07;;;5.75;;
78885;SDS011;68269;52.514;5.722;2023-05-10T02:27:35;16.27;;;5.40;;
78885;SDS011;68269;52.514;5.722;2023-05-10T02:30:07;19.67;;;6.88;;
78885;SDS011;68269;52.514;5.722;2023-05-10T02:32:37;15.82;;;5.43;;
78885;SDS011;68269;52.514;5.722;2023-05-10T02:35:10;17.45;;;5.93;;
78885;SDS011;68269;52.514;5.722;2023-05-10T02:37:41;17.05;;;5.47;;
78885;SDS011;68269;52.514;5.722;2023-05-10T02:40:12;15.50;;;5.32;;
78885;SDS011;68269;52.514;5.722;2023-05-10T02:42:43;14.93;;;5.28;;
78885;SDS011;68269;52.514;5.722;2023-05-10T02:45:17;14.30;;;4.95;;
78885;SDS011;68269;52.514;5.722;2023-05-10T02:47:49;16.67;;;5.45;;
78885;SDS011;68269;52.514;5.722;2023-05-10T02:50:22;17.33;;;5.60;;
78885;SDS011;68269;52.514;5.722;2023-05-10T02:52:56;15.02;;;5.80;;
78885;SDS011;68269;52.514;5.722;2023-05-10T02:55:32;15.25;;;5.25;;
78885;SDS011;68269;52.514;5.722;2023-05-10T02:58:06;14.25;;;5.00;;
78885;SDS011;68269;52.514;5.722;2023-05-10T03:00:35;17.88;;;5.40;;
78885;SDS011;68269;52.514;5.722;2023-05-10T03:03:05;14.80;;;5.20;;
78885;SDS011;68269;52.514;5.722;2023-05-10T03:05:37;16.13;;;5.07;;
78885;SDS011;68269;52.514;5.722;2023-05-10T03:08:07;13.57;;;4.55;;
78885;SDS011;68269;52.514;5.722;2023-05-10T03:10:38;14.38;;;5.57;;
78885;SDS011;68269;52.514;5.722;2023-05-10T03:13:13;15.25;;;4.82;;
78885;SDS011;68269;52.514;5.722;2023-05-10T03:15:55;15.02;;;4.50;;
78885;SDS011;68269;52.514;5.722;2023-05-10T03:18:34;12.90;;;4.32;;
78885;SDS011;68269;52.514;5.722;2023-05-10T03:21:13;16.08;;;5.22;;
78885;SDS011;68269;52.514;5.722;2023-05-10T03:23:47;15.52;;;4.97;;
78885;SDS011;68269;52.514;5.722;2023-05-10T03:26:23;15.65;;;4.50;;
78885;SDS011;68269;52.514;5.722;2023-05-10T03:29:03;15.05;;;4.70;;
78885;SDS011;68269;52.514;5.722;2023-05-10T03:31:34;13.57;;;5.10;;
78885;SDS011;68269;52.514;5.722;2023-05-10T03:34:04;14.60;;;5.18;;
78885;SDS011;68269;52.514;5.722;2023-05-10T03:36:36;13.15;;;4.22;;
78885;SDS011;68269;52.514;5.722;2023-05-10T03:39:06;15.02;;;4.68;;
78885;SDS011;68269;52.514;5.722;2023-05-10T03:41:36;14.65;;;4.35;;
78885;SDS011;68269;52.514;5.722;2023-05-10T03:44:06;15.00;;;4.72;;
78885;SDS011;68269;52.514;5.722;2023-05-10T03:46:35;13.65;;;4.50;;
78885;SDS011;68269;52.514;5.722;2023-05-10T03:49:04;13.15;;;4.30;;
78885;SDS011;68269;52.514;5.722;2023-05-10T03:51:36;15.40;;;5.10;;
78885;SDS011;68269;52.514;5.722;2023-05-10T03:54:05;13.80;;;4.82;;
78885;SDS011;68269;52.514;5.722;2023-05-10T03:56:35;14.55;;;3.75;;
78885;SDS011;68269;52.514;5.722;2023-05-10T03:59:05;12.82;;;4.63;;
78885;SDS011;68269;52.514;5.722;2023-05-10T04:01:35;13.18;;;4.45;;
78885;SDS011;68269;52.514;5.722;2023-05-10T04:04:04;12.80;;;4.13;;
78885;SDS011;68269;52.514;5.722;2023-05-10T04:06:37;15.63;;;4.53;;
78885;SDS011;68269;52.514;5.722;2023-05-10T04:09:06;12.63;;;4.40;;
78885;SDS011;68269;52.514;5.722;2023-05-10T04:11:37;15.02;;;4.57;;
78885;SDS011;68269;52.514;5.722;2023-05-10T04:14:06;14.77;;;4.03;;
78885;SDS011;68269;52.514;5.722;2023-05-10T04:16:35;12.23;;;3.83;;
78885;SDS011;68269;52.514;5.722;2023-05-10T04:19:05;12.88;;;4.07;;
78885;SDS011;68269;52.514;5.722;2023-05-10T04:21:36;13.45;;;4.07;;
78885;SDS011;68269;52.514;5.722;2023-05-10T04:24:06;13.93;;;4.88;;
78885;SDS011;68269;52.514;5.722;2023-05-10T04:26:35;14.90;;;4.40;;
78885;SDS011;68269;52.514;5.722;2023-05-10T04:29:04;13.82;;;4.38;;
78885;SDS011;68269;52.514;5.722;2023-05-10T04:31:34;12.00;;;4.72;;
78885;SDS011;68269;52.514;5.722;2023-05-10T04:34:04;13.73;;;5.30;;
78885;SDS011;68269;52.514;5.722;2023-05-10T04:36:33;11.15;;;3.63;;
78885;SDS011;68269;52.514;5.722;2023-05-10T04:39:05;14.10;;;4.63;;
78885;SDS011;68269;52.514;5.722;2023-05-10T04:41:35;11.70;;;4.55;;
78885;SDS011;68269;52.514;5.722;2023-05-10T04:44:06;11.95;;;3.90;;
78885;SDS011;68269;52.514;5.722;2023-05-10T04:46:35;13.73;;;4.47;;
78885;SDS011;68269;52.514;5.722;2023-05-10T04:49:05;11.43;;;3.63;;
78885;SDS011;68269;52.514;5.722;2023-05-10T04:51:34;12.10;;;3.72;;
78885;SDS011;68269;52.514;5.722;2023-05-10T04:54:06;14.63;;;4.25;;
78885;SDS011;68269;52.514;5.722;2023-05-10T04:56:36;13.38;;;3.83;;
78885;SDS011;68269;52.514;5.722;2023-05-10T04:59:05;12.27;;;4.47;;
78885;SDS011;68269;52.514;5.722;2023-05-10T05:01:34;12.40;;;4.05;;
78885;SDS011;68269;52.514;5.722;2023-05-10T05:04:04;12.25;;;3.72;;
78885;SDS011;68269;52.514;5.722;2023-05-10T05:06:33;15.93;;;5.05;;
78885;SDS011;68269;52.514;5.722;2023-05-10T05:09:02;11.68;;;4.22;;
78885;SDS011;68269;52.514;5.722;2023-05-10T05:11:35;13.73;;;3.97;;
78885;SDS011;68269;52.514;5.722;2023-05-10T05:14:06;15.65;;;4.78;;
78885;SDS011;68269;52.514;5.722;2023-05-10T05:16:35;14.40;;;4.32;;
78885;SDS011;68269;52.514;5.722;2023-05-10T05:19:04;15.50;;;4.72;;
78885;SDS011;68269;52.514;5.722;2023-05-10T05:21:33;15.02;;;4.72;;
78885;SDS011;68269;52.514;5.722;2023-05-10T05:24:03;14.73;;;4.53;;
78885;SDS011;68269;52.514;5.722;2023-05-10T05:26:36;15.82;;;4.65;;
78885;SDS011;68269;52.514;5.722;2023-05-10T05:29:06;14.40;;;4.40;;
78885;SDS011;68269;52.514;5.722;2023-05-10T05:31:35;12.02;;;4.32;;
78885;SDS011;68269;52.514;5.722;2023-05-10T05:34:04;14.88;;;3.95;;
78885;SDS011;68269;52.514;5.722;2023-05-10T05:36:35;14.20;;;4.35;;
78885;SDS011;68269;52.514;5.722;2023-05-10T05:39:08;13.18;;;3.90;;
78885;SDS011;68269;52.514;5.722;2023-05-10T05:41:37;14.05;;;3.72;;
78885;SDS011;68269;52.514;5.722;2023-05-10T05:44:06;15.80;;;4.28;;
78885;SDS011;68269;52.514;5.722;2023-05-10T05:46:36;10.48;;;3.85;;
78885;SDS011;68269;52.514;5.722;2023-05-10T05:49:05;13.35;;;3.85;;
78885;SDS011;68269;52.514;5.722;2023-05-10T05:51:34;13.38;;;3.65;;
78885;SDS011;68269;52.514;5.722;2023-05-10T05:54:04;11.57;;;3.63;;
78885;SDS011;68269;52.514;5.722;2023-05-10T05:56:35;13.45;;;3.90;;
78885;SDS011;68269;52.514;5.722;2023-05-10T05:59:05;11.88;;;4.20;;
78885;SDS011;68269;52.514;5.722;2023-05-10T06:01:34;11.60;;;3.50;;
78885;SDS011;68269;52.514;5.722;2023-05-10T06:04:03;15.27;;;3.75;;
78885;SDS011;68269;52.514;5.722;2023-05-10T06:06:33;12.95;;;4.05;;
78885;SDS011;68269;52.514;5.722;2023-05-10T06:09:02;14.75;;;4.18;;
78885;SDS011;68269;52.514;5.722;2023-05-10T06:11:31;12.60;;;3.85;;
78885;SDS011;68269;52.514;5.722;2023-05-10T06:14:03;12.57;;;3.92;;
78885;SDS011;68269;52.514;5.722;2023-05-10T06:16:33;11.05;;;3.63;;
78885;SDS011;68269;52.514;5.722;2023-05-10T06:19:03;12.70;;;3.90;;
78885;SDS011;68269;52.514;5.722;2023-05-10T06:21:32;15.68;;;3.92;;
78885;SDS011;68269;52.514;5.722;2023-05-10T06:24:02;14.75;;;4.20;;
78885;SDS011;68269;52.514;5.722;2023-05-10T06:26:32;12.38;;;3.75;;
78885;SDS011;68269;52.514;5.722;2023-05-10T06:29:04;10.23;;;3.17;;
78885;SDS011;68269;52.514;5.722;2023-05-10T06:31:33;12.68;;;3.33;;
78885;SDS011;68269;52.514;5.722;2023-05-10T06:34:02;10.25;;;2.97;;
78885;SDS011;68269;52.514;5.722;2023-05-10T06:36:33;10.10;;;3.00;;
78885;SDS011;68269;52.514;5.722;2023-05-10T06:39:03;12.15;;;3.22;;
78885;SDS011;68269;52.514;5.722;2023-05-10T06:41:32;10.93;;;2.83;;
78885;SDS011;68269;52.514;5.722;2023-05-10T06:44:04;8.63;;;2.75;;
78885;SDS011;68269;52.514;5.722;2023-05-10T06:46:34;9.07;;;2.63;;
78885;SDS011;68269;52.514;5.722;2023-05-10T06:49:03;9.43;;;2.58;;
78885;SDS011;68269;52.514;5.722;2023-05-10T06:51:32;9.65;;;2.47;;
78885;SDS011;68269;52.514;5.722;2023-05-10T06:54:02;12.30;;;2.85;;
78885;SDS011;68269;52.514;5.722;2023-05-10T06:56:32;10.18;;;2.42;;
78885;SDS011;68269;52.514;5.722;2023-05-10T06:59:04;10.77;;;2.70;;
78885;SDS011;68269;52.514;5.722;2023-05-10T07:01:33;8.75;;;2.65;;
78885;SDS011;68269;52.514;5.722;2023-05-10T07:04:03;9.48;;;2.65;;
78885;SDS011;68269;52.514;5.722;2023-05-10T07:06:33;9.55;;;2.75;;
78885;SDS011;68269;52.514;5.722;2023-05-10T07:09:02;9.25;;;2.72;;
78885;SDS011;68269;52.514;5.722;2023-05-10T07:11:33;9.38;;;2.60;;
78885;SDS011;68269;52.514;5.722;2023-05-10T07:14:05;7.70;;;2.33;;
78885;SDS011;68269;52.514;5.722;2023-05-10T07:16:35;9.98;;;2.75;;
78885;SDS011;68269;52.514;5.722;2023-05-10T07:19:04;10.00;;;2.55;;
78885;SDS011;68269;52.514;5.722;2023-05-10T07:21:33;10.05;;;2.65;;
78885;SDS011;68269;52.514;5.722;2023-05-10T07:24:03;8.18;;;2.55;;
78885;SDS011;68269;52.514;5.722;2023-05-10T07:26:32;9.65;;;2.85;;
78885;SDS011;68269;52.514;5.722;2023-05-10T07:29:02;11.32;;;1.85;;
78885;SDS011;68269;52.514;5.722;2023-05-10T07:31:33;8.50;;;2.50;;
78885;SDS011;68269;52.514;5.722;2023-05-10T07:34:03;8.57;;;2.13;;
78885;SDS011;68269;52.514;5.722;2023-05-10T07:36:32;10.48;;;2.97;;
78885;SDS011;68269;52.514;5.722;2023-05-10T07:39:02;8.15;;;2.88;;
78885;SDS011;68269;52.514;5.722;2023-05-10T07:41:31;9.77;;;2.95;;
78885;SDS011;68269;52.514;5.722;2023-05-10T07:44:00;10.40;;;3.08;;
78885;SDS011;68269;52.514;5.722;2023-05-10T07:46:29;10.88;;;3.58;;
78885;SDS011;68269;52.514;5.722;2023-05-10T07:49:01;11.88;;;3.30;;
78885;SDS011;68269;52.514;5.722;2023-05-10T07:51:31;10.80;;;3.25;;
78885;SDS011;68269;52.514;5.722;2023-05-10T07:54:00;10.10;;;3.38;;
78885;SDS011;68269;52.514;5.722;2023-05-10T07:56:30;13.23;;;3.92;;
78885;SDS011;68269;52.514;5.722;2023-05-10T07:59:01;10.80;;;3.35;;
78885;SDS011;68269;52.514;5.722;2023-05-10T08:01:32;12.77;;;3.50;;
78885;SDS011;68269;52.514;5.722;2023-05-10T08:04:05;12.18;;;3.10;;
78885;SDS011;68269;52.514;5.722;2023-05-10T08:06:34;11.02;;;3.13;;
78885;SDS011;68269;52.514;5.722;2023-05-10T08:09:04;10.50;;;3.13;;
78885;SDS011;68269;52.514;5.722;2023-05-10T08:11:33;11.20;;;3.20;;
78885;SDS011;68269;52.514;5.722;2023-05-10T08:14:02;10.60;;;3.28;;
78885;SDS011;68269;52.514;5.722;2023-05-10T08:16:31;11.50;;;3.10;;
78885;SDS011;68269;52.514;5.722;2023-05-10T08:19:01;9.80;;;3.03;;
78885;SDS011;68269;52.514;5.722;2023-05-10T08:21:32;9.65;;;2.72;;
78885;SDS011;68269;52.514;5.722;2023-05-10T08:24:02;10.45;;;2.75;;
78885;SDS011;68269;52.514;5.722;2023-05-10T08:26:32;10.50;;;2.88;;
78885;SDS011;68269;52.514;5.722;2023-05-10T08:29:02;11.98;;;3.13;;
78885;SDS011;68269;52.514;5.722;2023-05-10T08:31:31;10.00;;;2.65;;
78885;SDS011;68269;52.514;5.722;2023-05-10T08:34:00;9.13;;;2.60;;
78885;SDS011;68269;52.514;5.722;2023-05-10T08:36:30;9.68;;;2.90;;
78885;SDS011;68269;52.514;5.722;2023-05-10T08:39:02;9.32;;;2.65;;
78885;SDS011;68269;52.514;5.722;2023-05-10T08:41:31;8.35;;;2.60;;
78885;SDS011;68269;52.514;5.722;2023-05-10T08:44:03;9.32;;;3.15;;
78885;SDS011;68269;52.514;5.722;2023-05-10T08:46:33;10.52;;;2.80;;
78885;SDS011;68269;52.514;5.722;2023-05-10T08:49:08;10.15;;;3.03;;
78885;SDS011;68269;52.514;5.722;2023-05-10T08:51:43;10.70;;;2.22;;
78885;SDS011;68269;52.514;5.722;2023-05-10T08:54:15;8.15;;;2.42;;
78885;SDS011;68269;52.514;5.722;2023-05-10T08:56:44;11.35;;;2.97;;
78885;SDS011;68269;52.514;5.722;2023-05-10T08:59:15;9.80;;;2.95;;
78885;SDS011;68269;52.514;5.722;2023-05-10T09:01:44;10.10;;;3.50;;
78885;SDS011;68269;52.514;5.722;2023-05-10T09:04:15;10.77;;;2.90;;
78885;SDS011;68269;52.514;5.722;2023-05-10T09:06:47;10.27;;;2.70;;
78885;SDS011;68269;52.514;5.722;2023-05-10T09:09:16;10.27;;;2.83;;
78885;SDS011;68269;52.514;5.722;2023-05-10T09:11:46;11.98;;;3.00;;
78885;SDS011;68269;52.514;5.722;2023-05-10T09:14:16;10.80;;;3.13;;
78885;SDS011;68269;52.514;5.722;2023-05-10T09:16:45;10.73;;;2.95;;
78885;SDS011;68269;52.514;5.722;2023-05-10T09:19:15;9.40;;;2.88;;
78885;SDS011;68269;52.514;5.722;2023-05-10T09:21:47;13.68;;;3.45;;
78885;SDS011;68269;52.514;5.722;2023-05-10T09:26:47;9.23;;;2.90;;
78885;SDS011;68269;52.514;5.722;2023-05-10T09:29:17;7.40;;;2.00;;
78885;SDS011;68269;52.514;5.722;2023-05-10T09:31:46;9.68;;;2.92;;
78885;SDS011;68269;52.514;5.722;2023-05-10T09:34:21;7.80;;;2.17;;
78885;SDS011;68269;52.514;5.722;2023-05-10T09:37:00;9.20;;;2.75;;
78885;SDS011;68269;52.514;5.722;2023-05-10T09:39:31;9.90;;;2.60;;
78885;SDS011;68269;52.514;5.722;2023-05-10T09:42:02;6.85;;;2.38;;
78885;SDS011;68269;52.514;5.722;2023-05-10T09:44:33;8.18;;;2.45;;
78885;SDS011;68269;52.514;5.722;2023-05-10T09:47:03;8.88;;;2.67;;
78885;SDS011;68269;52.514;5.722;2023-05-10T09:49:33;10.32;;;2.60;;
78885;SDS011;68269;52.514;5.722;2023-05-10T09:52:06;10.13;;;2.90;;
78885;SDS011;68269;52.514;5.722;2023-05-10T09:54:36;9.07;;;2.72;;
78885;SDS011;68269;52.514;5.722;2023-05-10T09:57:05;10.15;;;2.90;;
78885;SDS011;68269;52.514;5.722;2023-05-10T09:59:47;11.02;;;3.65;;
78885;SDS011;68269;52.514;5.722;2023-05-10T10:02:16;11.35;;;3.38;;
78885;SDS011;68269;52.514;5.722;2023-05-10T10:04:46;9.82;;;2.83;;
78885;SDS011;68269;52.514;5.722;2023-05-10T10:07:24;7.40;;;2.58;;
78885;SDS011;68269;52.514;5.722;2023-05-10T10:09:54;10.25;;;3.13;;
78885;SDS011;68269;52.514;5.722;2023-05-10T10:12:24;9.43;;;3.25;;
78885;SDS011;68269;52.514;5.722;2023-05-10T10:14:54;9.70;;;2.85;;
78885;SDS011;68269;52.514;5.722;2023-05-10T10:17:24;10.32;;;3.25;;
78885;SDS011;68269;52.514;5.722;2023-05-10T10:19:56;8.90;;;2.33;;
78885;SDS011;68269;52.514;5.722;2023-05-10T10:22:29;9.57;;;2.42;;
78885;SDS011;68269;52.514;5.722;2023-05-10T10:24:58;11.75;;;3.33;;
78885;SDS011;68269;52.514;5.722;2023-05-10T10:27:30;10.15;;;2.53;;
78885;SDS011;68269;52.514;5.722;2023-05-10T10:30:10;7.75;;;2.70;;
78885;SDS011;68269;52.514;5.722;2023-05-10T10:32:58;9.07;;;2.75;;
78885;SDS011;68269;52.514;5.722;2023-05-10T10:35:35;12.75;;;3.20;;
78885;SDS011;68269;52.514;5.722;2023-05-10T10:38:09;11.98;;;2.53;;
78885;SDS011;68269;52.514;5.722;2023-05-10T10:43:21;9.75;;;2.58;;
78885;SDS011;68269;52.514;5.722;2023-05-10T10:48:40;8.50;;;2.88;;
78885;SDS011;68269;52.514;5.722;2023-05-10T10:51:09;9.45;;;2.88;;
78885;SDS011;68269;52.514;5.722;2023-05-10T10:53:41;11.68;;;3.08;;
78885;SDS011;68269;52.514;5.722;2023-05-10T10:56:12;7.93;;;2.60;;
78885;SDS011;68269;52.514;5.722;2023-05-10T10:58:42;10.85;;;3.00;;
78885;SDS011;68269;52.514;5.722;2023-05-10T11:01:19;8.38;;;2.85;;
78885;SDS011;68269;52.514;5.722;2023-05-10T11:04:16;10.68;;;2.85;;
78885;SDS011;68269;52.514;5.722;2023-05-10T11:06:50;10.15;;;2.20;;
78885;SDS011;68269;52.514;5.722;2023-05-10T11:09:19;9.13;;;2.58;;
78885;SDS011;68269;52.514;5.722;2023-05-10T11:11:53;8.85;;;2.28;;
78885;SDS011;68269;52.514;5.722;2023-05-10T11:14:24;5.78;;;2.03;;
78885;SDS011;68269;52.514;5.722;2023-05-10T11:16:54;8.38;;;1.88;;
78885;SDS011;68269;52.514;5.722;2023-05-10T11:19:26;8.43;;;2.65;;
78885;SDS011;68269;52.514;5.722;2023-05-10T11:27:24;6.82;;;2.05;;
78885;SDS011;68269;52.514;5.722;2023-05-10T11:29:54;9.40;;;2.53;;
78885;SDS011;68269;52.514;5.722;2023-05-10T11:32:24;7.97;;;2.22;;
78885;SDS011;68269;52.514;5.722;2023-05-10T11:34:55;7.60;;;2.30;;
78885;SDS011;68269;52.514;5.722;2023-05-10T11:37:28;8.95;;;2.97;;
78885;SDS011;68269;52.514;5.722;2023-05-10T11:39:59;10.73;;;2.47;;
78885;SDS011;68269;52.514;5.722;2023-05-10T11:42:29;8.77;;;2.13;;
78885;SDS011;68269;52.514;5.722;2023-05-10T11:45:00;8.35;;;2.15;;
78885;SDS011;68269;52.514;5.722;2023-05-10T11:47:29;8.77;;;2.47;;
78885;SDS011;68269;52.514;5.722;2023-05-10T11:50:04;8.60;;;2.50;;
78885;SDS011;68269;52.514;5.722;2023-05-10T11:52:35;9.90;;;2.20;;
78885;SDS011;68269;52.514;5.722;2023-05-10T11:55:05;8.32;;;2.63;;
78885;SDS011;68269;52.514;5.722;2023-05-10T11:57:35;9.57;;;2.28;;
78885;SDS011;68269;52.514;5.722;2023-05-10T12:00:07;8.20;;;2.33;;
78885;SDS011;68269;52.514;5.722;2023-05-10T12:02:37;9.00;;;2.55;;
78885;SDS011;68269;52.514;5.722;2023-05-10T12:05:10;7.80;;;2.45;;
78885;SDS011;68269;52.514;5.722;2023-05-10T12:07:39;9.23;;;2.15;;
78885;SDS011;68269;52.514;5.722;2023-05-10T12:10:09;7.45;;;2.08;;
78885;SDS011;68269;52.514;5.722;2023-05-10T12:12:40;7.65;;;2.30;;
78885;SDS011;68269;52.514;5.722;2023-05-10T12:15:11;10.63;;;2.40;;
78885;SDS011;68269;52.514;5.722;2023-05-10T12:17:45;10.02;;;3.10;;
78885;SDS011;68269;52.514;5.722;2023-05-10T12:20:18;10.32;;;3.03;;
78885;SDS011;68269;52.514;5.722;2023-05-10T12:22:50;13.05;;;3.15;;
78885;SDS011;68269;52.514;5.722;2023-05-10T12:25:21;10.15;;;2.97;;
78885;SDS011;68269;52.514;5.722;2023-05-10T12:27:51;12.82;;;3.00;;
78885;SDS011;68269;52.514;5.722;2023-05-10T12:30:21;11.45;;;3.63;;
78885;SDS011;68269;52.514;5.722;2023-05-10T12:32:52;9.40;;;2.40;;
78885;SDS011;68269;52.514;5.722;2023-05-10T12:35:24;7.68;;;2.38;;
78885;SDS011;68269;52.514;5.722;2023-05-10T12:37:57;9.18;;;2.55;;
78885;SDS011;68269;52.514;5.722;2023-05-10T12:40:27;10.30;;;2.50;;
78885;SDS011;68269;52.514;5.722;2023-05-10T12:42:56;9.18;;;2.95;;
78885;SDS011;68269;52.514;5.722;2023-05-10T12:45:25;7.43;;;2.28;;
78885;SDS011;68269;52.514;5.722;2023-05-10T12:47:55;9.00;;;2.40;;
78885;SDS011;68269;52.514;5.722;2023-05-10T12:50:26;9.05;;;2.60;;
78885;SDS011;68269;52.514;5.722;2023-05-10T12:52:56;9.35;;;2.75;;
78885;SDS011;68269;52.514;5.722;2023-05-10T12:55:25;9.05;;;2.70;;
78885;SDS011;68269;52.514;5.722;2023-05-10T12:57:54;9.20;;;2.67;;
78885;SDS011;68269;52.514;5.722;2023-05-10T13:00:24;8.82;;;2.30;;
78885;SDS011;68269;52.514;5.722;2023-05-10T13:02:53;8.93;;;2.15;;
78885;SDS011;68269;52.514;5.722;2023-05-10T13:05:23;9.73;;;3.05;;
78885;SDS011;68269;52.514;5.722;2023-05-10T13:07:54;8.55;;;2.50;;
78885;SDS011;68269;52.514;5.722;2023-05-10T13:10:24;9.18;;;2.53;;
78885;SDS011;68269;52.514;5.722;2023-05-10T13:12:53;9.20;;;2.20;;
78885;SDS011;68269;52.514;5.722;2023-05-10T13:15:22;8.98;;;2.30;;
78885;SDS011;68269;52.514;5.722;2023-05-10T13:17:52;9.18;;;2.15;;
78885;SDS011;68269;52.514;5.722;2023-05-10T13:20:22;7.70;;;2.17;;
78885;SDS011;68269;52.514;5.722;2023-05-10T13:22:51;6.93;;;2.10;;
78885;SDS011;68269;52.514;5.722;2023-05-10T13:25:23;11.02;;;2.60;;
78885;SDS011;68269;52.514;5.722;2023-05-10T13:27:53;9.98;;;2.72;;
78885;SDS011;68269;52.514;5.722;2023-05-10T13:30:22;7.97;;;2.40;;
78885;SDS011;68269;52.514;5.722;2023-05-10T13:32:52;9.70;;;2.38;;
78885;SDS011;68269;52.514;5.722;2023-05-10T13:35:21;8.43;;;2.58;;
78885;SDS011;68269;52.514;5.722;2023-05-10T13:37:51;10.38;;;2.95;;
78885;SDS011;68269;52.514;5.722;2023-05-10T13:40:25;10.10;;;2.70;;
78885;SDS011;68269;52.514;5.722;2023-05-10T13:42:54;9.82;;;2.55;;
78885;SDS011;68269;52.514;5.722;2023-05-10T13:45:23;8.63;;;2.60;;
78885;SDS011;68269;52.514;5.722;2023-05-10T13:47:53;7.72;;;2.45;;
78885;SDS011;68269;52.514;5.722;2023-05-10T13:50:22;9.27;;;2.65;;
78885;SDS011;68269;52.514;5.722;2023-05-10T13:52:52;9.77;;;2.28;;
78885;SDS011;68269;52.514;5.722;2023-05-10T13:55:21;8.82;;;2.30;;
78885;SDS011;68269;52.514;5.722;2023-05-10T13:57:54;12.38;;;3.22;;
78885;SDS011;68269;52.514;5.722;2023-05-10T14:00:23;9.15;;;2.55;;
78885;SDS011;68269;52.514;5.722;2023-05-10T14:02:53;10.88;;;2.58;;
78885;SDS011;68269;52.514;5.722;2023-05-10T14:05:22;6.25;;;2.13;;
78885;SDS011;68269;52.514;5.722;2023-05-10T14:07:52;8.23;;;2.47;;
78885;SDS011;68269;52.514;5.722;2023-05-10T14:10:21;8.93;;;2.40;;
78885;SDS011;68269;52.514;5.722;2023-05-10T14:12:53;6.88;;;1.67;;
78885;SDS011;68269;52.514;5.722;2023-05-10T14:15:22;7.70;;;2.13;;
78885;SDS011;68269;52.514;5.722;2023-05-10T14:17:51;8.38;;;2.47;;
78885;SDS011;68269;52.514;5.722;2023-05-10T14:20:21;9.15;;;2.58;;
78885;SDS011;68269;52.514;5.722;2023-05-10T14:22:50;7.25;;;2.10;;
78885;SDS011;68269;52.514;5.722;2023-05-10T14:25:19;5.82;;;1.60;;
78885;SDS011;68269;52.514;5.722;2023-05-10T14:27:48;10.07;;;2.40;;
78885;SDS011;68269;52.514;5.722;2023-05-10T14:30:22;6.38;;;1.85;;
78885;SDS011;68269;52.514;5.722;2023-05-10T14:32:52;9.38;;;2.33;;
78885;SDS011;68269;52.514;5.722;2023-05-10T14:35:24;8.60;;;2.10;;
78885;SDS011;68269;52.514;5.722;2023-05-10T14:37:53;7.63;;;1.90;;
78885;SDS011;68269;52.514;5.722;2023-05-10T14:40:22;6.82;;;1.88;;
78885;SDS011;68269;52.514;5.722;2023-05-10T14:42:52;6.72;;;1.83;;
78885;SDS011;68269;52.514;5.722;2023-05-10T14:45:24;8.05;;;2.47;;
78885;SDS011;68269;52.514;5.722;2023-05-10T14:47:54;10.35;;;2.45;;
78885;SDS011;68269;52.514;5.722;2023-05-10T14:50:23;8.20;;;2.33;;
78885;SDS011;68269;52.514;5.722;2023-05-10T14:52:53;9.43;;;2.53;;
78885;SDS011;68269;52.514;5.722;2023-05-10T14:55:22;7.65;;;2.22;;
78885;SDS011;68269;52.514;5.722;2023-05-10T14:57:51;9.05;;;2.40;;
78885;SDS011;68269;52.514;5.722;2023-05-10T15:00:24;12.57;;;2.75;;
78885;SDS011;68269;52.514;5.722;2023-05-10T15:02:53;8.98;;;2.40;;
78885;SDS011;68269;52.514;5.722;2023-05-10T15:05:23;7.80;;;1.88;;
78885;SDS011;68269;52.514;5.722;2023-05-10T15:07:52;11.00;;;2.65;;
78885;SDS011;68269;52.514;5.722;2023-05-10T15:10:21;10.98;;;2.67;;
78885;SDS011;68269;52.514;5.722;2023-05-10T15:12:51;10.13;;;2.95;;
78885;SDS011;68269;52.514;5.722;2023-05-10T15:15:20;8.98;;;2.55;;
78885;SDS011;68269;52.514;5.722;2023-05-10T15:17:52;8.00;;;2.38;;
78885;SDS011;68269;52.514;5.722;2023-05-10T15:20:21;7.35;;;2.00;;
78885;SDS011;68269;52.514;5.722;2023-05-10T15:22:51;9.05;;;2.65;;